• Join FlightAware (Why Join?)
  • Login
  • US Flag 
12:04PM EDT


 

Airport Tracker/Info


-or-


 

Live Flight TrackerFlight Track Log ✈ JBU917 ✈ 10-May-2013 ✈ KJFK - KORD

Flight Track Log - Related Links

Times and Time Zones

All times are in EDT time to prevent confusion due to time zone crossing. See the JBU917 flight status page for this flight to view local times or setup timezone preferences in your user account.

Time Position Orientation Groundspeed Altitude Reporting Facility
EDT Latitude Longitude Course Direction KTS MPH feet Rate Location/Type
09:39PM 40.6167 -73.8000 323° Northwest 139 160 1,500  Level New York TRACON
09:40PM 40.5667 -73.7833 166° South 221 254 3,500 2,400 Climbing New York TRACON
09:41PM 40.6000 -73.7167 57° Northeast 255 293 6,300 3,120 Climbing New York TRACON
09:42PM 40.8483 -74.1799 304° West  Level FlightAware Approximate
09:42PM 40.6500 -73.6667 37° Northeast 260 299 9,800  Level New York TRACON
09:43PM 40.9044 -74.2856 306° West  Level FlightAware Approximate
09:43PM 40.7167 -73.6000 37° Northeast 270 311 12,400  Level New York TRACON
09:44PM 40.9615 -74.3905 306° West  Level FlightAware Approximate
09:44PM 40.8000 -73.6000 360° North 283 326 14,900  Level New York TRACON
09:45PM 41.0228 -74.4894 323° Northwest  Level FlightAware Approximate
09:45PM 40.8667 -73.6167 349° North 296 341 17,000  Level New York TRACON
09:46PM 40.9167 -73.7000 308° West 349 402 17,000  Level New York TRACON
09:49PM 41.0300 -74.0003 297° West 376 433 17,000 420 Level New York Center
09:50PM 41.0539 -74.1086 286° West 384 442 18,600 1,740 Climbing New York Center
09:51PM 41.0978 -74.2514 292° West 384 442 20,600 2,040 Climbing New York Center
09:52PM 41.1472 -74.4053 293° West 394 453 22,700 1,680 Climbing New York Center
09:53PM 41.1908 -74.5428 293° West 402 463 24,000 1,620 Climbing New York Center
09:54PM 41.2322 -74.6803 292° West 402 463 26,000 1,560 Climbing New York Center
09:55PM 41.2775 -74.8181 294° West 407 468 27,200 1,080 Climbing New York Center
09:56PM 41.3167 -74.9558 291° West 417 480 28,200 1,200 Climbing New York Center
09:57PM 41.3594 -75.0939 292° West 417 480 29,700 1,500 Climbing New York Center
09:58PM 41.4022 -75.2350 292° West 417 480 31,300 1,500 Climbing New York Center
09:59PM 41.4408 -75.3678 291° West 406 467 32,700 1,260 Climbing New York Center
10:00PM 41.4794 -75.5003 291° West 394 453 33,800 1,020 Climbing New York Center
10:01PM 41.5178 -75.6306 291° West 387 445 34,800 840 Climbing New York Center
10:02PM 41.5561 -75.7636 291° West 387 445 35,600 600 Climbing New York Center
10:03PM 41.5942 -75.8942 291° West 381 438 36,000 180 Climbing New York Center
10:04PM 41.6319 -76.0303 290° West 386 444 36,000  Level New York Center
10:05PM 41.6717 -76.1667 291° West 391 450 36,000  Level New York Center
10:06PM 41.7144 -76.3228 290° West 402 463 36,000  Level New York Center
10:07PM 41.7533 -76.4681 290° West 402 463 36,000  Level New York Center
10:08PM 41.7889 -76.5933 291° West 402 463 36,000  Level New York Center
10:10PM 41.8833 -76.9347 290° West 403 464 36,000  Level Cleveland Center
10:11PM 41.9233 -77.0778 291° West 403 464 36,000  Level Cleveland Center
10:12PM 41.9589 -77.2211 288° West 408 470 36,000  Level Cleveland Center
10:13PM 42.0006 -77.3669 291° West 408 470 36,000  Level Cleveland Center
10:14PM 42.0353 -77.4967 290° West 408 470 36,000  Level Cleveland Center
10:15PM 42.0725 -77.6403 289° West 408 470 36,000  Level Cleveland Center
10:16PM 42.1117 -77.7897 290° West 413 475 36,000  Level Cleveland Center
10:17PM 42.1506 -77.9364 290° West 418 481 36,000  Level Cleveland Center
10:18PM 42.1892 -78.0833 290° West 418 481 36,000  Level Cleveland Center
10:19PM 42.2278 -78.2278 290° West 418 481 36,000  Level Cleveland Center
10:20PM 42.2661 -78.3778 289° West 418 481 36,000  Level Cleveland Center
10:21PM 42.3042 -78.5253 289° West 423 487 36,000  Level Cleveland Center
10:22PM 42.3425 -78.6786 289° West 423 487 36,000  Level Cleveland Center
10:23PM 42.3803 -78.8264 289° West 418 481 36,000  Level Cleveland Center
10:24PM 42.4158 -78.9772 288° West 418 481 36,000  Level Cleveland Center
10:25PM 42.4531 -79.1311 288° West 423 487 36,000  Level Cleveland Center
10:26PM 42.4925 -79.2822 290° West 423 487 36,000  Level Cleveland Center
10:27PM 42.5003 -79.4342 274° West 417 480 36,000  Level Cleveland Center
10:28PM 42.5081 -79.5861 274° West 407 468 36,000  Level Cleveland Center
10:29PM 42.5156 -79.7381 274° West 407 468 36,000  Level Cleveland Center
10:30PM 42.5247 -79.8931 275° West 407 468 36,000  Level Cleveland Center
10:31PM 42.5256 -80.0450 270° West 407 468 36,000  Level Cleveland Center
10:32PM 42.5325 -80.1972 274° West 407 468 36,000  Level Cleveland Center
10:33PM 42.5392 -80.3522 273° West 407 468 36,000  Level Cleveland Center
10:34PM 42.5436 -80.5042 272° West 407 468 36,000  Level Cleveland Center
10:35PM 42.5519 -80.6733 274° West 401 461 36,000  Level Cleveland Center
10:36PM 42.5578 -80.8256 273° West 406 467 36,000  Level Cleveland Center
10:37PM 42.5636 -80.9750 273° West 406 467 36,000  Level Cleveland Center
10:38PM 42.5694 -81.1300 273° West 411 473 36,000  Level Cleveland Center
10:39PM 42.5747 -81.2825 273° West 406 467 36,000  Level Cleveland Center
10:40PM 42.5800 -81.4319 273° West 406 467 36,000  Level Cleveland Center
10:41PM 42.6058 -81.5789 283° West 405 466 36,000  Level Cleveland Center
10:42PM 42.6317 -81.7289 283° West 414 476 36,000  Level Cleveland Center
10:43PM 42.6572 -81.8761 283° West 409 471 36,000  Level Cleveland Center
10:44PM 42.6844 -82.0264 284° West 409 471 36,000  Level Cleveland Center
10:45PM 42.7078 -82.1739 282° West 409 471 36,000  Level Cleveland Center
10:46PM 42.7325 -82.3272 282° West 409 471 36,000  Level Cleveland Center
10:47PM 42.7467 -82.4803 277° West 414 476 36,000  Level Cleveland Center
10:48PM 42.7589 -82.6278 276° West 408 470 36,000  Level Cleveland Center
10:49PM 42.7686 -82.7778 275° West 408 470 36,000  Level Cleveland Center
10:50PM 42.7781 -82.9281 275° West 408 470 36,000  Level Cleveland Center
10:51PM 42.7897 -83.0728 276° West 403 464 36,000  Level Cleveland Center
10:52PM 42.8008 -83.2233 276° West 403 464 36,000  Level Cleveland Center
10:53PM 42.8097 -83.3767 275° West 408 470 36,000  Level Cleveland Center
10:54PM 42.8186 -83.5269 275° West 408 470 36,000  Level Cleveland Center
10:55PM 42.8275 -83.6633 275° West 408 470 36,000  Level Cleveland Center
10:56PM 42.8381 -83.8111 276° West 408 470 36,000  Level Cleveland Center
10:57PM 42.8483 -83.9589 275° West 408 470 36,000 -60 Level Cleveland Center
10:59PM 42.8667 -84.2744 275° West 406 467 35,900 -720 Descending Chicago Center
11:00PM 42.8750 -84.4264 274° West 405 466 33,800 -1,920 Descending Chicago Center
11:01PM 42.8828 -84.5778 274° West 401 461 32,000 -900 Descending Chicago Center
11:02PM 42.8689 -84.7322 263° West 410 472 32,000  Level Chicago Center
11:03PM 42.8517 -84.8861 261° West 412 474 32,000  Level Chicago Center
11:04PM 42.8331 -85.0697 262° West 409 471 32,000  Level Chicago Center
11:05PM 42.8164 -85.2225 262° West 409 471 32,000  Level Chicago Center
11:06PM 42.8000 -85.3753 262° West 408 470 32,000 -360 Level Chicago Center
11:07PM 42.7822 -85.5278 261° West 407 468 31,300 -1,440 Descending Chicago Center
11:08PM 42.7544 -85.6781 256° West 407 468 29,100 -2,040 Descending Chicago Center
11:09PM 42.7272 -85.8308 256° West 413 475 27,200 -1,980 Descending Chicago Center
11:10PM 42.7003 -85.9800 256° West 405 466 25,100 -2,460 Descending Chicago Center
11:11PM 42.6733 -86.1236 256° West 394 453 22,200 -2,460 Descending Chicago Center
11:12PM 42.6467 -86.2656 256° West 388 447 20,200 -1,800 Descending Chicago Center
11:13PM 42.6222 -86.3978 256° West 366 421 18,600 -1,380 Descending Chicago Center
11:14PM 42.5964 -86.5317 255° West 366 421 17,400 -1,260 Descending Chicago Center
11:15PM 42.5711 -86.6642 256° West 364 419 16,100 -1,260 Descending Chicago Center
11:16PM 42.5428 -86.7964 254° West 366 421 14,900 -1,200 Descending Chicago Center
11:17PM 42.5061 -86.9244 249° West 365 420 13,700 -1,320 Descending Chicago Center
11:19PM 42.4644 -87.0764 250° West 360 414 12,200 -1,320 Descending Chicago Center
11:20PM 42.4300 -87.2022 250° West 358 412 11,000 -1,140 Descending Chicago Center
11:21PM 42.3953 -87.3275 249° West 358 412 10,000 -540 Descending Chicago Center
11:22PM 42.3642 -87.4439 250° West 366 421 10,000  Level Chicago Center
11:23PM 42.3147 -87.5625 241° Southwest 372 428 10,000  Level Chicago Center
11:24PM 42.2169 -87.6661 218° Southwest 374 430 10,000 -60 Level Chicago Center
11:25PM 42.1350 -87.7508 217° Southwest 373 429 9,900 -120 Descending Chicago Center
11:26PM 42.1000 -87.8333 240° Southwest 300 345 9,800 -1,140 Descending Chicago TRACON
11:27PM 42.1000 -87.9500 270° West 280 322 7,800 -1,920 Descending Chicago TRACON
11:27PM 42.1000 -88.0333 270° West 267 307 6,200 -2,040 Descending Chicago TRACON
11:28PM 42.0833 -88.1333 257° West 271 312 4,200 -1,800 Descending Chicago TRACON
11:29PM 42.0839 -88.1519 272° West 270 311 4,000 -240 Descending Chicago Center
11:30PM 42.0394 -88.2089 224° Southwest 261 300 3,900  Descending Chicago Center
11:31PM 41.9781 -88.1992 173° South 226 260 4,000 -180 Climbing Chicago Center
11:32PM 41.9672 -88.1306 102° East 199 229 3,600 -720 Descending Chicago Center
11:33PM 41.9667 -88.0667 91° East 172 198 2,700 -1,080 Descending Chicago TRACON
11:33PM 41.9667 -88.0000 90° East 173 199 1,800 -1,020 Descending Chicago TRACON